ニューヨーク/JFK の空港の天気 - METARとTAF

ジョン・F・ケネディ国際空港 ( KJFK / JFK ) - アメリカ ニューヨーク州ニューヨーク
飛行場実況気象(Metar)
観測時間05/28 18:51 EDT (05/28 22:51 UTC)
風向・風速西 5m/s
視程10km以上
天気現象
少しの雲 雲底高度 1160m
全天の4割程度の雲 雲底高度 4270m
全天の4割程度の雲 雲底高度 6100m
気温23.3℃
湿度60%
気圧1008.6hPa
METARKJFK 282251Z 27010KT 10SM FEW038 SCT140 SCT200 23/15 A2979 RMK AO2 SLP086 T02330150
過去の天気等 Google飛行場航空写真 Wunderground天気予報

過去48時間のMETAR

飛行場予報(TAF)
発表時間: 5/28 19:29 EDT (5/28 23:29 UTC)
予報対象時間: 28日20時 EDT ~ 30日2時 EDT
風向・風速西 6m/s
視程10km以上
少しの雲 雲底高度 1830m
全天の4割程度の雲 雲底高度 3050m
全天の4割程度の雲 雲底高度 6100m
28日22時 EDT から
風向・風速北西 4m/s
視程10km以上
全天の4割程度の雲 雲底高度 3660m
全天の4割程度の雲 雲底高度 7620m
29日3時 EDT から
風向・風速北北西 3m/s
視程10km以上
全天の4割程度の雲 雲底高度 7620m
29日9時 EDT から
風向・風速不定 3m/s
視程10km以上
少しの雲 雲底高度 7620m
29日11時 EDT から
風向・風速南 4m/s
視程10km以上
少しの雲 雲底高度 7620m
29日23時 EDT から
風向・風速南南西 2m/s
視程10km以上
なし
KJFK 282329Z 2900/3006 28012KT P6SM FEW060 SCT100 SCT200
FM290200 31008KT P6SM SCT120 SCT250
FM290700 34005KT P6SM SCT250
FM291300 VRB05KT P6SM FEW250
FM291500 19008KT P6SM FEW250
FM300300 20004KT P6SM SKC